Time;durP1;ratioP1;P1;durP2;ratioP2;P2;SDS_P1;SDS_P2;PMS_P1;PMS_P2;Temp;Humidity;BMP_temperature;BMP_pressure;BME280_temperature;BME280_humidity;BME280_pressure;Samples;Min_cycle;Max_cycle;Signal;HPM_P1;HPM_P2
2021/04/06 00:00:00;;;;;;;12.20;1.90;;;;;;;-0.34;79.79;100295.22;5064309;28;20028;-51
2021/04/06 00:02:27;;;;;;;14.90;2.40;;;;;;;-0.35;80.13;100292.78;5068525;28;20032;-49
2021/04/06 00:04:56;;;;;;;9.27;2.13;;;;;;;-0.32;79.22;100295.03;5066470;28;20039;-48
2021/04/06 00:07:23;;;;;;;8.55;2.00;;;;;;;-0.31;78.24;100312.44;5040056;28;20024;-49
2021/04/06 00:09:58;;;;;;;14.15;2.88;;;;;;;-0.31;78.67;100307.19;5067883;28;20034;-51
2021/04/06 00:12:26;;;;;;;9.80;1.75;;;;;;;-0.31;79.12;100304.53;5051281;28;20042;-48
2021/04/06 00:14:54;;;;;;;9.80;1.67;;;;;;;-0.34;80.59;100303.09;5067423;28;20043;-49
2021/04/06 00:17:21;;;;;;;12.88;2.33;;;;;;;-0.36;79.53;100307.75;5062107;28;20024;-49
2021/04/06 00:19:49;;;;;;;9.20;2.20;;;;;;;-0.36;80.22;100313.00;5069660;28;20032;-46
2021/04/06 00:22:17;;;;;;;5.95;2.05;;;;;;;-0.39;79.31;100309.91;5064382;28;20025;-48
2021/04/06 00:24:48;;;;;;;6.93;1.83;;;;;;;-0.39;77.94;100320.44;5066605;28;20539;-47
2021/04/06 00:27:18;;;;;;;8.60;1.45;;;;;;;-0.48;80.12;100319.75;5067291;28;20033;-48
2021/04/06 00:29:48;;;;;;;8.02;1.85;;;;;;;-0.65;79.16;100327.06;5055070;28;20028;-46
2021/04/06 00:32:16;;;;;;;14.40;1.77;;;;;;;-0.61;81.19;100327.50;5069135;28;20047;-46
2021/04/06 00:34:42;;;;;;;15.60;2.08;;;;;;;-0.72;79.34;100336.72;5069500;28;20494;-48
2021/04/06 00:37:13;;;;;;;14.52;1.35;;;;;;;-0.66;81.53;100338.59;5071026;28;20153;-46
2021/04/06 00:39:39;;;;;;;8.32;1.42;;;;;;;-0.71;79.83;100335.72;5069453;28;20399;-47
2021/04/06 00:42:17;;;;;;;13.65;2.30;;;;;;;-0.68;79.90;100343.22;5073481;28;20795;-48
2021/04/06 00:44:47;;;;;;;7.78;2.15;;;;;;;-0.61;79.01;100330.13;5074275;28;20043;-46
2021/04/06 00:47:14;;;;;;;8.77;1.60;;;;;;;-0.56;77.82;100340.91;5073295;28;20536;-47
2021/04/06 00:49:42;;;;;;;9.63;2.22;;;;;;;-0.48;78.34;100343.44;5071800;28;20178;-47
2021/04/06 00:52:09;;;;;;;9.77;1.50;;;;;;;-0.52;78.23;100344.00;5072969;28;20024;-48
2021/04/06 00:54:36;;;;;;;11.38;1.63;;;;;;;-0.53;77.73;100339.75;5073989;28;20032;-47
2021/04/06 00:57:04;;;;;;;10.63;1.63;;;;;;;-0.59;77.88;100346.56;5072587;28;20023;-47
2021/04/06 00:59:31;;;;;;;7.65;1.30;;;;;;;-0.53;78.05;100343.19;5066253;28;20421;-49
2021/04/06 01:02:08;;;;;;;12.23;2.10;;;;;;;-0.51;78.52;100353.53;5070010;28;20202;-48
2021/04/06 01:04:39;;;;;;;7.25;1.70;;;;;;;-0.49;77.33;100352.34;5066788;28;20517;-47
2021/04/06 01:07:11;;;;;;;9.18;1.90;;;;;;;-0.56;77.94;100364.59;5070535;28;20119;-47
2021/04/06 01:09:47;;;;;;;7.55;1.48;;;;;;;-0.57;78.26;100360.34;5064235;28;20024;-48
2021/04/06 01:12:15;;;;;;;7.05;1.50;;;;;;;-0.59;80.85;100361.53;5068775;28;20613;-48
2021/04/06 01:14:45;;;;;;;7.50;1.50;;;;;;;-0.67;78.48;100360.63;5075079;28;20031;-47
2021/04/06 01:17:14;;;;;;;12.23;1.27;;;;;;;-0.74;79.22;100366.81;5071089;28;20021;-47
2021/04/06 01:19:40;;;;;;;9.18;2.20;;;;;;;-0.83;79.83;100371.38;5071716;28;20028;-47
2021/04/06 01:22:11;;;;;;;7.43;1.50;;;;;;;-0.77;79.02;100367.19;5068401;28;20078;-48
2021/04/06 01:24:38;;;;;;;10.40;1.38;;;;;;;-0.77;80.21;100367.19;5070078;28;20390;-47
2021/04/06 01:27:07;;;;;;;22.33;1.90;;;;;;;-0.82;79.06;100372.19;5076580;28;20021;-47
2021/04/06 01:29:33;;;;;;;9.95;1.48;;;;;;;-0.81;78.57;100373.81;5068275;28;20065;-47
2021/04/06 01:32:00;;;;;;;12.48;2.15;;;;;;;-0.81;79.83;100376.44;5077464;28;20032;-47
2021/04/06 01:34:26;;;;;;;7.13;1.95;;;;;;;-0.86;79.23;100384.88;5057528;28;20062;-48
2021/04/06 01:36:53;;;;;;;6.10;1.25;;;;;;;-0.83;79.98;100379.25;5078756;28;20077;-47
2021/04/06 01:39:24;;;;;;;6.30;1.30;;;;;;;-0.84;79.58;100382.88;5078486;28;20554;-47
2021/04/06 01:41:53;;;;;;;10.68;1.92;;;;;;;-0.84;79.72;100389.97;5061250;28;20032;-46
2021/04/06 01:44:19;;;;;;;16.02;1.80;;;;;;;-0.80;81.73;100378.88;5073459;28;20382;-47
2021/04/06 01:46:46;;;;;;;12.05;2.00;;;;;;;-0.86;80.30;100387.50;5072437;28;20025;-48
2021/04/06 01:49:17;;;;;;;6.45;1.65;;;;;;;-0.84;80.83;100389.97;5074128;28;20556;-48
2021/04/06 01:51:43;;;;;;;4.75;1.95;;;;;;;-0.87;81.30;100382.44;5070742;28;20889;-47
2021/04/06 01:54:12;;;;;;;8.85;1.48;;;;;;;-0.89;80.00;100392.34;5071655;28;20028;-47
2021/04/06 01:56:46;;;;;;;19.75;2.53;;;;;;;-0.85;80.32;100385.69;5071091;28;20021;-48
2021/04/06 01:59:16;;;;;;;8.95;2.00;;;;;;;-0.92;79.78;100389.03;5061406;28;20040;-47
2021/04/06 02:01:48;;;;;;;9.82;2.00;;;;;;;-0.91;80.22;100382.78;5065144;28;20028;-47
2021/04/06 02:04:18;;;;;;;7.75;1.50;;;;;;;-0.85;80.52;100390.97;5081821;28;20035;-47
2021/04/06 02:06:45;;;;;;;11.35;1.73;;;;;;;-0.92;81.29;100391.66;5070397;28;20493;-47
2021/04/06 02:09:11;;;;;;;9.35;1.88;;;;;;;-1.03;79.90;100386.88;5074996;28;20043;-46
2021/04/06 02:11:38;;;;;;;8.23;1.95;;;;;;;-0.96;80.17;100387.78;5069161;28;20024;-47
2021/04/06 02:14:10;;;;;;;5.85;1.40;;;;;;;-1.01;80.96;100382.25;5067615;28;20027;-46
2021/04/06 02:17:05;;;;;;;7.30;2.22;;;;;;;-1.02;80.33;100388.50;5073882;28;20028;-47
2021/04/06 02:19:43;;;;;;;12.90;1.30;;;;;;;-1.04;81.69;100393.13;5072760;28;20042;-46
2021/04/06 02:22:10;;;;;;;9.32;1.60;;;;;;;-0.99;83.82;100392.59;5069580;28;20509;-48
2021/04/06 02:24:41;;;;;;;7.40;1.80;;;;;;;-1.00;82.65;100389.16;5068164;28;20028;-48
2021/04/06 02:27:18;;;;;;;5.32;1.98;;;;;;;-1.04;80.09;100390.50;5073165;28;20647;-47
2021/04/06 02:29:52;;;;;;;8.82;1.95;;;;;;;-0.99;82.47;100393.41;5069320;28;20032;-46
2021/04/06 02:32:18;;;;;;;13.93;2.42;;;;;;;-1.00;81.12;100398.84;5073241;28;20032;-47
2021/04/06 02:34:50;;;;;;;6.00;1.33;;;;;;;-1.07;81.25;100390.88;5068463;28;20119;-46
2021/04/06 02:37:21;;;;;;;6.07;1.80;;;;;;;-0.99;83.63;100395.22;5079371;28;20066;-47
2021/04/06 02:39:49;;;;;;;5.45;1.30;;;;;;;-1.03;80.71;100391.31;5067212;28;20037;-47
2021/04/06 02:42:30;;;;;;;5.97;1.40;;;;;;;-0.99;82.96;100390.78;5070347;28;20016;-50
2021/04/06 02:45:07;;;;;;;7.32;1.65;;;;;;;-1.13;80.74;100401.28;5074701;28;20063;-47
2021/04/06 02:47:41;;;;;;;6.57;1.42;;;;;;;-1.11;82.07;100400.09;5071753;28;20111;-47
2021/04/06 02:50:09;;;;;;;7.03;2.23;;;;;;;-1.16;80.65;100397.19;5069633;28;20025;-46
2021/04/06 02:52:36;;;;;;;8.40;1.60;;;;;;;-1.13;80.51;100403.91;5074046;28;20036;-47
2021/04/06 02:55:05;;;;;;;6.32;2.03;;;;;;;-1.12;80.82;100405.53;5073030;28;20116;-47
2021/04/06 02:57:30;;;;;;;10.48;1.98;;;;;;;-1.09;79.60;100407.81;5076251;28;20024;-47
2021/04/06 02:59:57;;;;;;;2.17;1.40;;;;;;;-1.03;79.77;100413.19;5072367;28;20552;-46
2021/04/06 03:02:23;;;;;;;9.52;1.23;;;;;;;-0.97;80.46;100415.06;5073420;28;20509;-47
2021/04/06 03:04:49;;;;;;;9.60;1.65;;;;;;;-1.01;79.24;100410.38;5063946;28;20032;-46
2021/04/06 03:07:26;;;;;;;4.97;1.35;;;;;;;-0.92;80.75;100410.09;5069118;28;20024;-48
2021/04/06 03:09:57;;;;;;;9.23;2.20;;;;;;;-0.88;81.96;100418.44;5070477;28;20474;-46
2021/04/06 03:12:28;;;;;;;6.03;1.35;;;;;;;-0.90;80.08;100417.78;5057676;28;20036;-47
2021/04/06 03:14:55;;;;;;;11.50;3.05;;;;;;;-0.86;79.69;100407.75;5071300;28;20112;-46
2021/04/06 03:17:20;;;;;;;8.38;1.58;;;;;;;-0.87;80.47;100416.63;5074044;28;20074;-46
2021/04/06 03:19:55;;;;;;;8.13;1.83;;;;;;;-0.94;80.03;100422.59;5072668;28;21252;-48
2021/04/06 03:22:21;;;;;;;7.15;1.52;;;;;;;-0.83;80.10;100417.91;5072903;28;20024;-47
2021/04/06 03:24:48;;;;;;;7.38;1.70;;;;;;;-0.80;80.85;100422.78;5071102;28;20098;-47
2021/04/06 03:27:13;;;;;;;6.18;1.63;;;;;;;-0.86;79.77;100413.81;5074403;28;20077;-50
2021/04/06 03:29:39;;;;;;;4.28;1.33;;;;;;;-0.82;81.96;100416.91;5066407;28;20525;-46
2021/04/06 03:32:06;;;;;;;9.68;1.92;;;;;;;-0.81;81.84;100429.03;5077729;28;20032;-46
2021/04/06 03:34:34;;;;;;;10.23;1.48;;;;;;;-0.88;79.61;100420.25;5066716;28;20044;-46
2021/04/06 03:37:03;;;;;;;4.75;1.65;;;;;;;-0.86;80.49;100420.91;5080288;28;20123;-47
2021/04/06 03:39:32;;;;;;;4.93;1.60;;;;;;;-0.91;81.29;100422.22;5066939;28;22198;-47
2021/04/06 03:41:57;;;;;;;8.07;1.60;;;;;;;-0.89;79.92;100413.38;5076217;28;20059;-48
2021/04/06 03:44:31;;;;;;;7.95;1.77;;;;;;;-0.91;79.77;100414.34;5069240;28;20028;-46
2021/04/06 03:47:02;;;;;;;10.98;2.00;;;;;;;-0.92;79.99;100420.59;5068613;28;20033;-46
2021/04/06 03:49:30;;;;;;;7.10;2.35;;;;;;;-0.89;81.05;100422.06;5068291;28;20381;-48
2021/04/06 03:52:01;;;;;;;7.20;1.33;;;;;;;-0.88;81.02;100418.44;5074092;28;20024;-46
2021/04/06 03:54:35;;;;;;;5.53;1.52;;;;;;;-0.78;82.22;100420.78;5066653;28;20107;-46
2021/04/06 03:57:23;;;;;;;11.02;2.10;;;;;;;-0.80;81.42;100414.91;5075297;28;20424;-46
2021/04/06 03:59:49;;;;;;;5.60;1.30;;;;;;;-0.87;81.49;100416.63;5069289;28;20028;-48
2021/04/06 04:02:15;;;;;;;9.90;1.70;;;;;;;-0.95;80.26;100422.78;5072627;28;20017;-45
2021/04/06 04:04:41;;;;;;;12.27;1.90;;;;;;;-1.00;81.61;100414.63;5075006;28;20037;-47
2021/04/06 04:07:07;;;;;;;6.82;1.77;;;;;;;-1.09;80.32;100413.88;5072802;28;20065;-46
2021/04/06 04:09:33;;;;;;;4.43;1.20;;;;;;;-1.11;81.77;100407.16;5068567;28;20043;-46
2021/04/06 04:11:59;;;;;;;3.70;1.45;;;;;;;-1.13;81.46;100420.50;5069935;28;20054;-47
2021/04/06 04:14:25;;;;;;;5.63;1.80;;;;;;;-1.06;80.59;100415.34;5070660;28;20024;-48
2021/04/06 04:16:50;;;;;;;9.32;1.58;;;;;;;-1.04;82.11;100423.88;5073566;28;20449;-46
2021/04/06 04:19:16;;;;;;;6.55;1.60;;;;;;;-1.05;81.54;100419.63;5069418;28;20455;-47
2021/04/06 04:21:41;;;;;;;8.02;1.95;;;;;;;-0.96;83.02;100415.88;5069929;28;20024;-47
2021/04/06 04:24:07;;;;;;;6.50;1.42;;;;;;;-1.10;81.48;100411.44;5066830;28;20052;-48
2021/04/06 04:26:33;;;;;;;5.35;1.50;;;;;;;-1.19;81.43;100413.34;5066015;28;20032;-48
2021/04/06 04:28:58;;;;;;;7.43;1.60;;;;;;;-1.27;82.18;100408.97;5065123;28;20024;-46
2021/04/06 04:31:25;;;;;;;11.70;1.55;;;;;;;-1.30;82.55;100404.06;5069247;28;20032;-46
2021/04/06 04:33:51;;;;;;;6.97;1.95;;;;;;;-1.46;81.63;100408.66;5070867;28;20456;-46
2021/04/06 04:36:16;;;;;;;4.70;1.80;;;;;;;-1.34;82.92;100415.13;5068177;28;20028;-46
2021/04/06 04:38:42;;;;;;;4.50;1.60;;;;;;;-1.46;81.35;100412.09;5073848;28;20032;-46
2021/04/06 04:41:07;;;;;;;7.43;2.05;;;;;;;-1.46;82.55;100404.22;5067794;28;20028;-46
2021/04/06 04:43:33;;;;;;;7.25;1.77;;;;;;;-1.51;82.36;100409.19;5072004;28;20028;-49
2021/04/06 04:45:58;;;;;;;10.65;1.92;;;;;;;-1.39;82.71;100401.72;5065561;28;20130;-46
2021/04/06 04:48:24;;;;;;;7.18;1.90;;;;;;;-1.41;82.64;100390.56;5070950;28;20013;-47
2021/04/06 04:50:49;;;;;;;5.90;1.52;;;;;;;-1.42;83.03;100404.72;5071718;28;20115;-46
2021/04/06 04:53:15;;;;;;;7.18;2.63;;;;;;;-1.41;83.91;100395.81;5071301;28;20022;-46
2021/04/06 04:55:41;;;;;;;6.65;1.98;;;;;;;-1.47;82.51;100410.47;5065175;28;20595;-46
2021/04/06 04:58:06;;;;;;;7.80;2.20;;;;;;;-1.45;82.34;100415.53;5076536;28;20024;-48
2021/04/06 05:00:32;;;;;;;5.25;2.25;;;;;;;-1.53;82.51;100409.38;5064773;28;20021;-47
2021/04/06 05:02:58;;;;;;;10.38;2.08;;;;;;;-1.55;81.96;100414.00;5076269;28;20024;-47
2021/04/06 05:05:23;;;;;;;8.88;2.05;;;;;;;-1.48;83.73;100408.03;5067401;28;20063;-47
2021/04/06 05:07:49;;;;;;;5.70;2.10;;;;;;;-1.48;82.06;100408.84;5068681;28;20024;-48
2021/04/06 05:10:16;;;;;;;3.28;1.65;;;;;;;-1.31;81.73;100420.03;5071019;28;20032;-45
2021/04/06 05:12:45;;;;;;;3.20;1.40;;;;;;;-1.28;82.17;100409.16;5070847;28;20136;-47
2021/04/06 05:15:10;;;;;;;12.32;2.25;;;;;;;-1.24;82.08;100411.25;5071941;28;20113;-46
2021/04/06 05:17:36;;;;;;;7.63;2.13;;;;;;;-1.22;81.75;100409.25;5065763;28;20114;-46
2021/04/06 05:20:04;;;;;;;10.98;2.60;;;;;;;-1.18;81.88;100414.16;5073568;28;20115;-46
2021/04/06 05:22:29;;;;;;;10.38;2.30;;;;;;;-1.06;80.83;100418.81;5063912;28;20032;-46
2021/04/06 05:24:55;;;;;;;4.10;2.60;;;;;;;-1.00;80.69;100417.25;5073593;28;20149;-48
2021/04/06 05:27:20;;;;;;;10.13;2.63;;;;;;;-0.84;80.35;100426.78;5072676;28;20051;-47
2021/04/06 05:29:46;;;;;;;6.90;2.50;;;;;;;-0.76;81.26;100418.78;5070959;28;20150;-46
2021/04/06 05:32:12;;;;;;;8.10;2.25;;;;;;;-0.71;79.62;100422.53;5080017;28;20023;-46
2021/04/06 05:34:37;;;;;;;5.00;1.73;;;;;;;-0.58;80.05;100419.22;5071264;28;20032;-46
2021/04/06 05:37:03;;;;;;;9.38;1.98;;;;;;;-0.53;78.80;100419.50;5076325;28;20028;-46
2021/04/06 05:39:29;;;;;;;7.32;2.47;;;;;;;-0.58;78.89;100413.97;5074371;28;20120;-47
2021/04/06 05:41:54;;;;;;;7.07;2.72;;;;;;;-0.54;77.66;100409.97;5073190;28;20135;-46
2021/04/06 05:44:20;;;;;;;5.22;1.77;;;;;;;-0.34;78.99;100416.31;5076175;28;20086;-47
2021/04/06 05:46:49;;;;;;;4.20;1.80;;;;;;;-0.28;76.96;100419.19;5068249;28;20528;-47
2021/04/06 05:49:20;;;;;;;4.63;1.75;;;;;;;-0.19;77.93;100418.06;5072830;28;20106;-48
2021/04/06 05:51:46;;;;;;;8.50;2.10;;;;;;;-0.12;76.94;100421.59;5074539;28;20835;-48
2021/04/06 05:54:13;;;;;;;9.40;2.13;;;;;;;0.32;75.64;100418.78;5070377;28;20058;-49
2021/04/06 05:56:39;;;;;;;8.32;2.25;;;;;;;0.68;72.99;100426.59;5076760;28;20078;-47
2021/04/06 05:59:05;;;;;;;4.45;1.70;;;;;;;0.45;75.77;100426.00;5072488;28;20040;-46
2021/04/06 06:01:32;;;;;;;5.40;2.15;;;;;;;-0.14;75.40;100415.69;5071618;28;20078;-48
2021/04/06 06:03:59;;;;;;;7.20;2.72;;;;;;;-0.16;78.26;100421.16;5076583;28;20060;-47
2021/04/06 06:06:25;;;;;;;6.63;1.65;;;;;;;-0.36;78.26;100420.09;5072392;28;20028;-49
2021/04/06 06:08:55;;;;;;;9.80;2.17;;;;;;;-0.41;77.81;100428.56;5078106;28;20775;-45
2021/04/06 06:11:20;;;;;;;6.55;2.08;;;;;;;-0.41;78.29;100427.72;5070953;28;20028;-49
2021/04/06 06:13:46;;;;;;;9.70;2.28;;;;;;;-0.40;77.83;100435.44;5070934;28;21059;-49
2021/04/06 06:16:12;;;;;;;9.98;2.88;;;;;;;-0.31;77.19;100428.28;5071072;28;20029;-48
2021/04/06 06:18:55;;;;;;;7.43;1.83;;;;;;;-0.05;77.10;100438.28;5069357;28;20054;-47
2021/04/06 06:21:22;;;;;;;8.00;2.47;;;;;;;0.26;78.31;100432.72;5072285;28;20017;-46
2021/04/06 06:23:49;;;;;;;5.45;1.83;;;;;;;0.17;76.24;100432.00;5069705;28;20039;-46
2021/04/06 06:26:16;;;;;;;7.50;2.10;;;;;;;0.30;74.75;100423.44;5072573;28;20850;-47
2021/04/06 06:29:04;;;;;;;10.25;2.42;;;;;;;0.42;74.20;100431.66;5069287;28;20059;-47
2021/04/06 06:31:42;;;;;;;6.85;1.70;;;;;;;0.62;75.93;100435.25;5072277;28;20029;-46
2021/04/06 06:34:35;;;;;;;6.88;2.30;;;;;;;0.67;74.53;100432.06;5073687;28;20028;-48
2021/04/06 06:37:17;;;;;;;6.90;2.28;;;;;;;0.40;74.03;100434.47;5073629;28;20020;-46
2021/04/06 06:39:53;;;;;;;6.80;2.00;;;;;;;0.68;75.31;100439.78;5071788;28;20504;-46
2021/04/06 06:42:22;;;;;;;7.22;2.65;;;;;;;0.61;74.00;100433.63;5073650;28;20082;-47
2021/04/06 06:44:48;;;;;;;6.60;2.25;;;;;;;0.51;74.16;100436.59;5072953;28;20036;-47
2021/04/06 06:47:23;;;;;;;9.48;2.17;;;;;;;0.38;74.79;100439.13;5070000;28;20490;-46
2021/04/06 06:49:52;;;;;;;;;;;;;;;0.35;75.63;100431.56;5072972;28;20105;-46
2021/04/06 06:52:24;;;;;;;24.73;7.97;;;;;;;0.52;75.62;100435.56;5073423;28;19921;-47
2021/04/06 06:55:00;;;;;;;8.38;2.80;;;;;;;0.49;75.43;100433.31;5073297;28;20499;-46
2021/04/06 06:57:32;;;;;;;5.20;1.98;;;;;;;0.37;74.71;100436.69;5061750;28;20046;-48
2021/04/06 07:00:15;;;;;;;6.43;2.05;;;;;;;0.47;75.65;100432.72;5076354;28;20020;-46
2021/04/06 07:02:41;;;;;;;4.68;2.90;;;;;;;0.47;75.13;100421.34;5072786;28;20127;-47
2021/04/06 07:05:26;;;;;;;7.30;2.38;;;;;;;0.76;74.15;100421.19;5073536;28;20031;-47
2021/04/06 07:08:06;;;;;;;6.68;2.10;;;;;;;0.77;74.94;100427.28;5072406;28;20032;-48
2021/04/06 07:10:43;;;;;;;6.13;2.47;;;;;;;0.47;74.06;100430.06;5070887;28;20134;-46
2021/04/06 07:13:17;;;;;;;10.32;2.72;;;;;;;0.42;74.25;100419.28;5068607;28;20032;-47
2021/04/06 07:15:45;;;;;;;4.40;2.30;;;;;;;0.88;73.50;100414.34;5072732;28;20187;-46
2021/04/06 07:18:22;;;;;;;11.43;3.47;;;;;;;1.11;72.44;100423.84;5070825;28;20035;-49
2021/04/06 07:20:54;;;;;;;12.07;2.60;;;;;;;1.34;71.73;100428.84;5070293;28;20063;-46
2021/04/06 07:23:33;;;;;;;8.32;2.22;;;;;;;1.20;71.49;100423.47;5073847;28;20086;-46
2021/04/06 07:26:11;;;;;;;8.40;2.40;;;;;;;1.00;72.10;100424.38;5075997;28;20117;-46
2021/04/06 07:28:40;;;;;;;9.48;2.95;;;;;;;0.84;73.34;100436.03;5071705;28;20032;-46
2021/04/06 07:31:09;;;;;;;9.02;2.60;;;;;;;0.70;73.15;100434.31;5070942;28;20047;-47
2021/04/06 07:33:35;;;;;;;8.05;2.60;;;;;;;0.89;72.79;100437.06;5077002;28;20489;-46
2021/04/06 07:36:06;;;;;;;7.28;1.85;;;;;;;1.40;71.67;100431.50;5071253;28;20039;-47
2021/04/06 07:38:35;;;;;;;12.57;2.78;;;;;;;1.55;71.41;100431.38;5072258;28;20031;-48
2021/04/06 07:41:02;;;;;;;11.35;2.45;;;;;;;1.57;72.92;100423.25;5071306;28;20016;-49
2021/04/06 07:43:28;;;;;;;7.45;2.10;;;;;;;1.46;71.67;100422.81;5070877;28;20033;-49
2021/04/06 07:45:54;;;;;;;4.97;2.17;;;;;;;1.43;72.75;100423.19;5074481;28;20062;-46
2021/04/06 07:48:40;;;;;;;7.03;2.45;;;;;;;1.64;71.08;100424.09;5069298;28;20120;-46
2021/04/06 07:51:19;;;;;;;6.47;2.67;;;;;;;1.85;70.35;100433.72;5058286;28;20161;-47
2021/04/06 07:54:08;;;;;;;9.82;2.83;;;;;;;1.69;70.37;100432.25;5069990;28;20028;-46
2021/04/06 07:56:46;;;;;;;7.43;2.22;;;;;;;1.45;70.25;100431.75;5068409;28;20081;-47
2021/04/06 07:59:20;;;;;;;10.27;2.80;;;;;;;1.32;70.44;100442.22;5060209;28;20130;-46
2021/04/06 08:01:54;;;;;;;8.73;2.03;;;;;;;1.47;71.71;100427.09;5070643;28;20028;-48
2021/04/06 08:04:45;;;;;;;6.70;2.13;;;;;;;1.83;71.60;100430.47;5072891;28;21072;-46
2021/04/06 08:07:19;;;;;;;7.88;2.40;;;;;;;1.98;69.91;100431.94;5073043;28;20714;-46
2021/04/06 08:09:49;;;;;;;11.32;4.97;;;;;;;1.82;69.96;100437.59;5075448;28;20488;-46
2021/04/06 08:12:25;;;;;;;6.70;2.60;;;;;;;2.39;68.85;100421.22;5075174;28;20135;-47
2021/04/06 08:15:09;;;;;;;12.98;4.03;;;;;;;2.64;68.44;100432.00;5072389;28;20024;-47
2021/04/06 08:17:35;;;;;;;12.00;2.58;;;;;;;2.25;66.72;100437.28;5073269;28;20024;-49
2021/04/06 08:20:06;;;;;;;9.52;2.35;;;;;;;2.73;67.49;100425.50;5071661;28;20032;-48
2021/04/06 08:22:44;;;;;;;10.40;2.75;;;;;;;2.54;67.33;100436.09;5075277;28;20055;-46
2021/04/06 08:25:18;;;;;;;16.08;3.60;;;;;;;2.12;67.33;100438.06;5057175;28;20043;-48
2021/04/06 08:27:47;;;;;;;15.10;2.63;;;;;;;2.32;68.43;100427.50;5074643;28;20040;-46
2021/04/06 08:30:15;;;;;;;11.55;3.00;;;;;;;2.61;68.03;100432.41;5056905;28;20486;-46
2021/04/06 08:32:43;;;;;;;4.28;1.73;;;;;;;3.12;67.95;100423.00;5073632;28;20039;-47
2021/04/06 08:35:08;;;;;;;9.43;2.30;;;;;;;3.08;65.25;100427.09;5073041;28;20028;-46
2021/04/06 08:37:37;;;;;;;8.00;2.38;;;;;;;2.99;64.74;100424.66;5077511;28;20058;-49
2021/04/06 08:40:05;;;;;;;9.25;2.33;;;;;;;3.45;65.34;100422.94;5075805;28;20032;-46
2021/04/06 08:42:31;;;;;;;7.22;2.22;;;;;;;3.99;63.38;100419.00;5073880;28;20651;-46
2021/04/06 08:44:59;;;;;;;11.57;2.45;;;;;;;4.22;62.34;100425.38;5075807;28;20068;-49
2021/04/06 08:47:43;;;;;;;5.40;2.15;;;;;;;3.40;63.18;100438.59;5075399;28;20917;-47
2021/04/06 08:50:18;;;;;;;8.80;2.47;;;;;;;2.97;62.68;100421.41;5072209;28;20029;-47
2021/04/06 08:52:43;;;;;;;10.60;2.10;;;;;;;3.44;63.90;100434.53;5076068;28;20028;-48
2021/04/06 08:55:12;;;;;;;9.15;1.70;;;;;;;3.08;62.98;100429.75;5072465;28;20070;-46
2021/04/06 08:57:38;;;;;;;6.68;2.72;;;;;;;3.51;64.82;100432.66;5077141;28;20505;-47
2021/04/06 09:00:10;;;;;;;6.40;2.30;;;;;;;3.86;61.93;100435.78;5076830;28;20677;-46
2021/04/06 09:02:36;;;;;;;8.98;2.47;;;;;;;3.96;61.93;100428.22;5083306;28;20495;-46
2021/04/06 09:05:02;;;;;;;7.80;2.55;;;;;;;3.94;64.52;100428.38;5079240;28;20052;-48
2021/04/06 09:07:37;;;;;;;6.50;2.25;;;;;;;3.63;60.39;100425.72;5077567;28;20056;-46
2021/04/06 09:10:11;;;;;;;9.75;1.95;;;;;;;3.61;62.61;100427.75;5076834;28;20058;-46
2021/04/06 09:12:43;;;;;;;7.38;1.92;;;;;;;3.91;60.39;100438.59;5082354;28;20066;-49
2021/04/06 09:15:11;;;;;;;7.95;2.33;;;;;;;4.08;61.22;100428.31;5081525;28;20025;-48
2021/04/06 09:17:38;;;;;;;8.25;1.80;;;;;;;4.29;58.47;100440.44;5080881;28;20032;-46
2021/04/06 09:20:12;;;;;;;5.38;1.92;;;;;;;4.20;57.54;100423.97;5078134;28;20375;-47
2021/04/06 09:22:39;;;;;;;12.40;2.47;;;;;;;4.69;60.72;100425.84;5080425;28;20092;-47
2021/04/06 09:25:21;;;;;;;5.97;1.95;;;;;;;4.76;59.91;100421.28;5077374;28;20031;-46
2021/04/06 09:28:02;;;;;;;6.13;2.67;;;;;;;4.55;58.19;100430.47;5078799;28;20030;-49
2021/04/06 09:30:34;;;;;;;7.63;1.67;;;;;;;4.92;59.63;100421.78;5079542;28;20563;-46
2021/04/06 09:33:01;;;;;;;9.82;1.67;;;;;;;4.85;56.43;100416.53;5077863;28;20028;-46
2021/04/06 09:35:27;;;;;;;7.60;2.72;;;;;;;4.36;55.99;100423.47;5079088;28;20036;-47
2021/04/06 09:37:54;;;;;;;8.75;2.47;;;;;;;4.51;58.16;100418.66;5071369;28;20082;-49
2021/04/06 09:40:28;;;;;;;10.15;2.10;;;;;;;5.00;55.65;100416.97;5073594;28;20036;-46
2021/04/06 09:42:54;;;;;;;10.97;2.20;;;;;;;5.01;54.77;100418.59;5073234;28;20028;-46
2021/04/06 09:45:19;;;;;;;5.32;1.60;;;;;;;5.22;52.84;100412.06;5076366;28;20037;-48
2021/04/06 09:47:45;;;;;;;9.10;1.80;;;;;;;5.10;54.56;100412.00;5075065;28;20640;-47
2021/04/06 09:50:11;;;;;;;8.10;2.25;;;;;;;5.33;53.62;100408.66;5075419;28;20070;-49
2021/04/06 09:52:38;;;;;;;8.30;2.17;;;;;;;5.71;53.73;100412.91;5083828;28;20088;-48
2021/04/06 09:55:08;;;;;;;8.43;1.92;;;;;;;5.73;53.87;100416.97;5083486;28;20110;-47
2021/04/06 09:57:41;;;;;;;5.93;1.95;;;;;;;5.90;52.08;100419.84;5072824;28;20995;-47
2021/04/06 10:00:25;;;;;;;9.15;2.22;;;;;;;5.49;52.15;100409.91;5071755;28;20539;-47
2021/04/06 10:03:10;;;;;;;5.13;1.73;;;;;;;5.60;50.85;100403.88;5070296;28;20417;-46
2021/04/06 10:05:38;;;;;;;5.07;1.63;;;;;;;5.41;52.81;100407.56;5078424;28;20027;-46
2021/04/06 10:08:04;;;;;;;9.07;2.13;;;;;;;5.13;53.01;100403.56;5072365;28;20410;-48
2021/04/06 10:10:33;;;;;;;6.22;1.95;;;;;;;5.58;52.43;100402.47;5077759;28;20054;-46
2021/04/06 10:13:01;;;;;;;10.05;1.85;;;;;;;5.79;48.84;100411.81;5079397;28;20032;-47
2021/04/06 10:15:29;;;;;;;7.65;2.10;;;;;;;5.17;49.99;100401.28;5059032;28;20037;-47
2021/04/06 10:17:56;;;;;;;10.77;1.73;;;;;;;5.00;51.29;100400.25;5077205;28;20084;-46
2021/04/06 10:20:34;;;;;;;10.57;1.67;;;;;;;4.92;52.56;100401.34;5077496;28;20028;-47
2021/04/06 10:23:00;;;;;;;4.47;1.90;;;;;;;5.25;52.80;100392.22;5069175;28;20115;-47
2021/04/06 10:25:35;;;;;;;8.65;2.25;;;;;;;5.31;51.85;100396.66;5077769;28;20058;-47
2021/04/06 10:28:04;;;;;;;5.40;2.15;;;;;;;5.44;52.12;100397.31;5076382;28;20031;-46
2021/04/06 10:30:44;;;;;;;5.25;1.38;;;;;;;6.00;50.97;100390.88;5071579;28;20055;-46
2021/04/06 10:33:13;;;;;;;4.03;1.55;;;;;;;6.59;50.21;100383.00;5074234;28;20051;-49
2021/04/06 10:35:45;;;;;;;7.18;1.55;;;;;;;6.43;48.56;100391.66;5077159;28;20028;-47
2021/04/06 10:38:21;;;;;;;5.35;1.60;;;;;;;6.10;49.59;100394.81;5073492;28;20522;-49
2021/04/06 10:40:48;;;;;;;6.13;1.98;;;;;;;5.65;51.01;100388.06;5076620;28;20139;-47
2021/04/06 10:43:17;;;;;;;5.60;2.30;;;;;;;5.68;52.05;100392.91;5078837;28;20508;-47
2021/04/06 10:45:49;;;;;;;8.55;2.05;;;;;;;5.25;49.98;100382.41;5080666;28;20043;-47
2021/04/06 10:48:19;;;;;;;6.50;1.92;;;;;;;4.93;50.31;100387.03;5083429;28;20118;-47
2021/04/06 10:50:49;;;;;;;6.82;1.75;;;;;;;5.04;51.04;100383.66;5081047;28;20116;-46
2021/04/06 10:53:23;;;;;;;6.63;1.98;;;;;;;5.76;49.96;100384.66;5078252;28;20080;-46
2021/04/06 10:55:55;;;;;;;3.57;1.17;;;;;;;6.46;46.10;100372.56;5077058;28;20032;-46
2021/04/06 10:58:35;;;;;;;7.97;1.58;;;;;;;6.42;45.16;100372.22;5079135;28;20127;-47
2021/04/06 11:01:06;;;;;;;4.88;1.70;;;;;;;7.03;46.03;100356.84;5086970;28;20041;-48
2021/04/06 11:03:40;;;;;;;6.43;1.92;;;;;;;7.41;44.30;100365.09;5081861;28;20116;-47
2021/04/06 11:06:33;;;;;;;9.70;2.42;;;;;;;6.52;45.56;100377.00;5084782;28;20097;-48
2021/04/06 11:09:01;;;;;;;8.77;2.00;;;;;;;6.50;45.75;100361.25;5056547;28;20852;-48
2021/04/06 11:11:31;;;;;;;4.78;1.52;;;;;;;7.02;45.57;100358.69;5071589;28;20043;-47
2021/04/06 11:14:05;;;;;;;5.28;1.55;;;;;;;6.79;41.22;100346.19;5072396;28;20069;-47
2021/04/06 11:16:32;;;;;;;3.92;1.73;;;;;;;6.26;41.52;100352.41;5064384;28;20025;-47
2021/04/06 11:19:13;;;;;;;5.88;1.63;;;;;;;6.91;42.42;100347.00;5074031;28;20674;-47
2021/04/06 11:21:42;;;;;;;4.75;1.45;;;;;;;7.08;41.50;100348.94;5070957;28;20055;-46
2021/04/06 11:24:08;;;;;;;5.15;1.50;;;;;;;6.73;40.65;100359.63;5066226;28;20115;-47
2021/04/06 11:26:34;;;;;;;7.05;1.50;;;;;;;7.08;41.44;100340.97;5066925;28;20139;-48
2021/04/06 11:29:00;;;;;;;5.07;1.20;;;;;;;6.71;42.30;100362.53;5075706;28;20115;-49
2021/04/06 11:31:26;;;;;;;5.28;1.48;;;;;;;6.62;43.66;100370.03;5067326;28;20064;-46
2021/04/06 11:33:51;;;;;;;5.47;1.55;;;;;;;6.33;47.46;100361.13;5063424;28;20063;-48
2021/04/06 11:36:17;;;;;;;5.88;1.48;;;;;;;5.93;50.31;100374.22;5070576;28;20035;-47
2021/04/06 11:38:44;;;;;;;4.13;1.40;;;;;;;6.34;50.62;100362.75;5068205;28;20040;-46